sensor_id;sensor_type;location;lat;lon;timestamp;P1;durP1;ratioP1;P2;durP2;ratioP2
72388;SDS011;60566;48.062;9.930;2023-03-20T00:00:34;5.95;;;2.60;;
72388;SDS011;60566;48.062;9.930;2023-03-20T00:03:01;4.50;;;2.35;;
72388;SDS011;60566;48.062;9.930;2023-03-20T00:05:27;4.03;;;2.28;;
72388;SDS011;60566;48.062;9.930;2023-03-20T00:07:53;4.38;;;2.58;;
72388;SDS011;60566;48.062;9.930;2023-03-20T00:10:20;4.72;;;2.55;;
72388;SDS011;60566;48.062;9.930;2023-03-20T00:12:48;3.85;;;2.22;;
72388;SDS011;60566;48.062;9.930;2023-03-20T00:15:17;6.28;;;2.72;;
72388;SDS011;60566;48.062;9.930;2023-03-20T00:17:48;4.80;;;2.35;;
72388;SDS011;60566;48.062;9.930;2023-03-20T00:20:14;3.80;;;2.10;;
72388;SDS011;60566;48.062;9.930;2023-03-20T00:22:40;4.10;;;2.22;;
72388;SDS011;60566;48.062;9.930;2023-03-20T00:25:06;4.57;;;2.67;;
72388;SDS011;60566;48.062;9.930;2023-03-20T00:27:34;5.82;;;2.60;;
72388;SDS011;60566;48.062;9.930;2023-03-20T00:29:59;4.10;;;2.50;;
72388;SDS011;60566;48.062;9.930;2023-03-20T00:32:24;4.30;;;2.72;;
72388;SDS011;60566;48.062;9.930;2023-03-20T00:34:50;4.15;;;2.50;;
72388;SDS011;60566;48.062;9.930;2023-03-20T00:37:15;8.18;;;2.78;;
72388;SDS011;60566;48.062;9.930;2023-03-20T00:39:40;4.05;;;2.35;;
72388;SDS011;60566;48.062;9.930;2023-03-20T00:42:06;4.32;;;2.78;;
72388;SDS011;60566;48.062;9.930;2023-03-20T00:44:35;5.28;;;2.70;;
72388;SDS011;60566;48.062;9.930;2023-03-20T00:47:03;5.22;;;2.65;;
72388;SDS011;60566;48.062;9.930;2023-03-20T00:49:30;4.28;;;2.58;;
72388;SDS011;60566;48.062;9.930;2023-03-20T00:51:56;4.68;;;2.25;;
72388;SDS011;60566;48.062;9.930;2023-03-20T00:54:22;4.32;;;2.55;;
72388;SDS011;60566;48.062;9.930;2023-03-20T00:56:48;4.43;;;2.72;;
72388;SDS011;60566;48.062;9.930;2023-03-20T00:59:16;11.32;;;3.33;;
72388;SDS011;60566;48.062;9.930;2023-03-20T01:01:45;6.78;;;3.20;;
72388;SDS011;60566;48.062;9.930;2023-03-20T01:04:11;6.07;;;2.85;;
72388;SDS011;60566;48.062;9.930;2023-03-20T01:06:38;5.28;;;2.63;;
72388;SDS011;60566;48.062;9.930;2023-03-20T01:09:03;7.30;;;3.20;;
72388;SDS011;60566;48.062;9.930;2023-03-20T01:11:29;5.45;;;2.97;;
72388;SDS011;60566;48.062;9.930;2023-03-20T01:13:54;4.63;;;2.50;;
72388;SDS011;60566;48.062;9.930;2023-03-20T01:16:21;5.05;;;2.92;;
72388;SDS011;60566;48.062;9.930;2023-03-20T01:18:49;4.88;;;2.83;;
72388;SDS011;60566;48.062;9.930;2023-03-20T01:21:15;5.45;;;3.25;;
72388;SDS011;60566;48.062;9.930;2023-03-20T01:23:41;6.32;;;3.38;;
72388;SDS011;60566;48.062;9.930;2023-03-20T01:26:10;4.93;;;2.80;;
72388;SDS011;60566;48.062;9.930;2023-03-20T01:28:44;4.82;;;3.05;;
72388;SDS011;60566;48.062;9.930;2023-03-20T01:31:09;6.28;;;3.58;;
72388;SDS011;60566;48.062;9.930;2023-03-20T01:33:35;5.70;;;3.13;;
72388;SDS011;60566;48.062;9.930;2023-03-20T01:36:02;6.63;;;3.95;;
72388;SDS011;60566;48.062;9.930;2023-03-20T01:38:27;7.40;;;3.70;;
72388;SDS011;60566;48.062;9.930;2023-03-20T01:40:53;6.47;;;4.65;;
72388;SDS011;60566;48.062;9.930;2023-03-20T01:43:21;6.60;;;3.88;;
72388;SDS011;60566;48.062;9.930;2023-03-20T01:45:51;5.93;;;3.53;;
72388;SDS011;60566;48.062;9.930;2023-03-20T01:48:20;6.82;;;3.95;;
72388;SDS011;60566;48.062;9.930;2023-03-20T01:50:47;6.05;;;3.75;;
72388;SDS011;60566;48.062;9.930;2023-03-20T01:53:15;6.13;;;3.75;;
72388;SDS011;60566;48.062;9.930;2023-03-20T01:55:42;8.85;;;3.80;;
72388;SDS011;60566;48.062;9.930;2023-03-20T01:58:11;8.15;;;3.78;;
72388;SDS011;60566;48.062;9.930;2023-03-20T02:00:38;8.57;;;3.95;;
72388;SDS011;60566;48.062;9.930;2023-03-20T02:03:05;6.75;;;3.45;;
72388;SDS011;60566;48.062;9.930;2023-03-20T02:05:31;7.55;;;3.67;;
72388;SDS011;60566;48.062;9.930;2023-03-20T02:07:59;6.68;;;4.32;;
72388;SDS011;60566;48.062;9.930;2023-03-20T02:10:31;5.85;;;3.55;;
72388;SDS011;60566;48.062;9.930;2023-03-20T02:12:57;6.70;;;4.47;;
72388;SDS011;60566;48.062;9.930;2023-03-20T02:15:24;6.75;;;3.83;;
72388;SDS011;60566;48.062;9.930;2023-03-20T02:17:50;7.22;;;4.07;;
72388;SDS011;60566;48.062;9.930;2023-03-20T02:20:20;8.00;;;4.55;;
72388;SDS011;60566;48.062;9.930;2023-03-20T02:35:15;7.75;;;4.63;;
72388;SDS011;60566;48.062;9.930;2023-03-20T02:38:16;8.48;;;5.15;;
72388;SDS011;60566;48.062;9.930;2023-03-20T02:40:50;8.02;;;4.88;;
72388;SDS011;60566;48.062;9.930;2023-03-20T02:43:21;8.60;;;4.90;;
72388;SDS011;60566;48.062;9.930;2023-03-20T02:45:52;9.88;;;5.38;;
72388;SDS011;60566;48.062;9.930;2023-03-20T02:48:23;8.93;;;5.57;;
72388;SDS011;60566;48.062;9.930;2023-03-20T02:50:54;8.60;;;5.38;;
72388;SDS011;60566;48.062;9.930;2023-03-20T02:53:27;9.73;;;4.78;;
72388;SDS011;60566;48.062;9.930;2023-03-20T02:55:58;8.25;;;5.57;;
72388;SDS011;60566;48.062;9.930;2023-03-20T02:58:30;8.13;;;5.28;;
72388;SDS011;60566;48.062;9.930;2023-03-20T03:01:02;12.40;;;5.72;;
72388;SDS011;60566;48.062;9.930;2023-03-20T03:03:32;9.80;;;5.97;;
72388;SDS011;60566;48.062;9.930;2023-03-20T03:06:00;9.30;;;5.43;;
72388;SDS011;60566;48.062;9.930;2023-03-20T03:08:31;8.38;;;5.22;;
72388;SDS011;60566;48.062;9.930;2023-03-20T03:11:02;9.55;;;5.13;;
72388;SDS011;60566;48.062;9.930;2023-03-20T03:13:30;9.98;;;5.03;;
72388;SDS011;60566;48.062;9.930;2023-03-20T03:15:58;9.45;;;4.95;;
72388;SDS011;60566;48.062;9.930;2023-03-20T03:18:24;8.70;;;5.18;;
72388;SDS011;60566;48.062;9.930;2023-03-20T03:20:51;11.93;;;5.30;;
72388;SDS011;60566;48.062;9.930;2023-03-20T03:23:22;10.25;;;6.18;;
72388;SDS011;60566;48.062;9.930;2023-03-20T03:25:51;10.02;;;5.82;;
72388;SDS011;60566;48.062;9.930;2023-03-20T03:28:20;10.27;;;6.15;;
72388;SDS011;60566;48.062;9.930;2023-03-20T03:30:48;9.82;;;6.10;;
72388;SDS011;60566;48.062;9.930;2023-03-20T03:33:17;10.80;;;5.30;;
72388;SDS011;60566;48.062;9.930;2023-03-20T03:35:44;9.90;;;5.53;;
72388;SDS011;60566;48.062;9.930;2023-03-20T03:38:17;10.30;;;5.68;;
72388;SDS011;60566;48.062;9.930;2023-03-20T03:40:49;9.77;;;5.47;;
72388;SDS011;60566;48.062;9.930;2023-03-20T03:43:21;10.45;;;5.80;;
72388;SDS011;60566;48.062;9.930;2023-03-20T03:45:51;12.63;;;5.82;;
72388;SDS011;60566;48.062;9.930;2023-03-20T03:48:20;12.27;;;6.78;;
72388;SDS011;60566;48.062;9.930;2023-03-20T03:50:48;10.85;;;5.90;;
72388;SDS011;60566;48.062;9.930;2023-03-20T03:53:16;10.63;;;5.80;;
72388;SDS011;60566;48.062;9.930;2023-03-20T03:55:43;10.30;;;5.40;;
72388;SDS011;60566;48.062;9.930;2023-03-20T03:58:12;9.38;;;5.68;;
72388;SDS011;60566;48.062;9.930;2023-03-20T04:00:40;9.43;;;5.38;;
72388;SDS011;60566;48.062;9.930;2023-03-20T04:03:06;8.82;;;5.43;;
72388;SDS011;60566;48.062;9.930;2023-03-20T04:05:32;9.88;;;6.05;;
72388;SDS011;60566;48.062;9.930;2023-03-20T04:08:00;10.93;;;5.40;;
72388;SDS011;60566;48.062;9.930;2023-03-20T04:10:26;9.23;;;5.35;;
72388;SDS011;60566;48.062;9.930;2023-03-20T04:12:51;9.60;;;5.15;;
72388;SDS011;60566;48.062;9.930;2023-03-20T04:15:18;9.45;;;5.82;;
72388;SDS011;60566;48.062;9.930;2023-03-20T04:17:44;9.13;;;5.38;;
72388;SDS011;60566;48.062;9.930;2023-03-20T04:20:09;9.30;;;5.63;;
72388;SDS011;60566;48.062;9.930;2023-03-20T04:22:35;9.38;;;6.55;;
72388;SDS011;60566;48.062;9.930;2023-03-20T04:25:01;9.40;;;5.53;;
72388;SDS011;60566;48.062;9.930;2023-03-20T04:27:27;10.75;;;5.85;;
72388;SDS011;60566;48.062;9.930;2023-03-20T04:29:53;10.05;;;6.25;;
72388;SDS011;60566;48.062;9.930;2023-03-20T04:32:19;11.38;;;6.05;;
72388;SDS011;60566;48.062;9.930;2023-03-20T04:34:45;10.52;;;5.32;;
72388;SDS011;60566;48.062;9.930;2023-03-20T04:37:10;11.38;;;5.50;;
72388;SDS011;60566;48.062;9.930;2023-03-20T04:39:36;10.00;;;5.53;;
72388;SDS011;60566;48.062;9.930;2023-03-20T04:42:01;11.05;;;5.55;;
72388;SDS011;60566;48.062;9.930;2023-03-20T04:44:27;10.27;;;5.93;;
72388;SDS011;60566;48.062;9.930;2023-03-20T04:46:52;10.23;;;5.40;;
72388;SDS011;60566;48.062;9.930;2023-03-20T04:49:19;11.13;;;5.78;;
72388;SDS011;60566;48.062;9.930;2023-03-20T04:51:44;9.85;;;6.00;;
72388;SDS011;60566;48.062;9.930;2023-03-20T04:54:10;13.02;;;7.10;;
72388;SDS011;60566;48.062;9.930;2023-03-20T04:56:35;12.88;;;6.45;;
72388;SDS011;60566;48.062;9.930;2023-03-20T04:59:00;9.68;;;5.65;;
72388;SDS011;60566;48.062;9.930;2023-03-20T05:01:26;9.68;;;5.55;;
72388;SDS011;60566;48.062;9.930;2023-03-20T05:03:51;14.23;;;6.13;;
72388;SDS011;60566;48.062;9.930;2023-03-20T05:06:18;11.43;;;5.30;;
72388;SDS011;60566;48.062;9.930;2023-03-20T05:08:43;10.80;;;5.72;;
72388;SDS011;60566;48.062;9.930;2023-03-20T05:11:09;10.30;;;5.70;;
72388;SDS011;60566;48.062;9.930;2023-03-20T05:13:34;11.32;;;6.47;;
72388;SDS011;60566;48.062;9.930;2023-03-20T05:15:59;11.88;;;6.15;;
72388;SDS011;60566;48.062;9.930;2023-03-20T05:18:25;11.55;;;6.13;;
72388;SDS011;60566;48.062;9.930;2023-03-20T05:20:50;11.85;;;6.20;;
72388;SDS011;60566;48.062;9.930;2023-03-20T05:23:17;12.43;;;7.38;;
72388;SDS011;60566;48.062;9.930;2023-03-20T05:25:43;12.93;;;6.07;;
72388;SDS011;60566;48.062;9.930;2023-03-20T05:28:08;10.18;;;5.82;;
72388;SDS011;60566;48.062;9.930;2023-03-20T05:30:34;9.77;;;5.93;;
72388;SDS011;60566;48.062;9.930;2023-03-20T05:32:59;12.50;;;6.20;;
72388;SDS011;60566;48.062;9.930;2023-03-20T05:35:24;12.52;;;6.80;;
72388;SDS011;60566;48.062;9.930;2023-03-20T05:37:50;9.80;;;6.03;;
72388;SDS011;60566;48.062;9.930;2023-03-20T05:40:16;11.43;;;6.30;;
72388;SDS011;60566;48.062;9.930;2023-03-20T05:42:42;13.50;;;6.18;;
72388;SDS011;60566;48.062;9.930;2023-03-20T05:45:09;17.40;;;7.13;;
72388;SDS011;60566;48.062;9.930;2023-03-20T05:47:35;11.85;;;6.82;;
72388;SDS011;60566;48.062;9.930;2023-03-20T05:50:00;10.10;;;6.32;;
72388;SDS011;60566;48.062;9.930;2023-03-20T05:52:26;11.23;;;6.05;;
72388;SDS011;60566;48.062;9.930;2023-03-20T05:54:51;11.25;;;7.00;;
72388;SDS011;60566;48.062;9.930;2023-03-20T05:57:18;10.70;;;5.88;;
72388;SDS011;60566;48.062;9.930;2023-03-20T05:59:43;10.57;;;6.25;;
72388;SDS011;60566;48.062;9.930;2023-03-20T06:02:09;11.43;;;6.68;;
72388;SDS011;60566;48.062;9.930;2023-03-20T06:04:34;13.23;;;7.00;;
72388;SDS011;60566;48.062;9.930;2023-03-20T06:06:59;13.13;;;6.68;;
72388;SDS011;60566;48.062;9.930;2023-03-20T06:09:25;10.38;;;6.10;;
72388;SDS011;60566;48.062;9.930;2023-03-20T06:11:50;12.45;;;7.03;;
72388;SDS011;60566;48.062;9.930;2023-03-20T06:14:17;11.48;;;6.18;;
72388;SDS011;60566;48.062;9.930;2023-03-20T06:16:43;10.30;;;5.95;;
72388;SDS011;60566;48.062;9.930;2023-03-20T06:19:08;12.18;;;6.60;;
72388;SDS011;60566;48.062;9.930;2023-03-20T06:21:33;10.85;;;5.68;;
72388;SDS011;60566;48.062;9.930;2023-03-20T06:23:59;11.93;;;6.35;;
72388;SDS011;60566;48.062;9.930;2023-03-20T06:26:24;11.80;;;6.32;;
72388;SDS011;60566;48.062;9.930;2023-03-20T06:28:50;11.70;;;6.15;;
72388;SDS011;60566;48.062;9.930;2023-03-20T06:31:17;11.48;;;5.88;;
72388;SDS011;60566;48.062;9.930;2023-03-20T06:33:42;12.18;;;6.10;;
72388;SDS011;60566;48.062;9.930;2023-03-20T06:36:08;11.60;;;5.90;;
72388;SDS011;60566;48.062;9.930;2023-03-20T06:38:33;10.05;;;5.72;;
72388;SDS011;60566;48.062;9.930;2023-03-20T06:40:59;13.93;;;6.25;;
72388;SDS011;60566;48.062;9.930;2023-03-20T06:43:24;10.48;;;5.63;;
72388;SDS011;60566;48.062;9.930;2023-03-20T06:45:50;11.25;;;6.03;;
72388;SDS011;60566;48.062;9.930;2023-03-20T06:48:17;10.85;;;5.78;;
72388;SDS011;60566;48.062;9.930;2023-03-20T06:50:44;13.43;;;6.28;;
72388;SDS011;60566;48.062;9.930;2023-03-20T06:53:10;10.25;;;6.05;;
72388;SDS011;60566;48.062;9.930;2023-03-20T06:55:36;10.35;;;5.93;;
72388;SDS011;60566;48.062;9.930;2023-03-20T06:58:01;11.40;;;7.43;;
72388;SDS011;60566;48.062;9.930;2023-03-20T07:00:27;12.25;;;5.70;;
72388;SDS011;60566;48.062;9.930;2023-03-20T07:02:52;10.57;;;6.65;;
72388;SDS011;60566;48.062;9.930;2023-03-20T07:05:19;9.43;;;5.90;;
72388;SDS011;60566;48.062;9.930;2023-03-20T07:07:44;9.27;;;5.15;;
72388;SDS011;60566;48.062;9.930;2023-03-20T07:10:10;9.55;;;5.43;;
72388;SDS011;60566;48.062;9.930;2023-03-20T07:12:35;10.93;;;5.72;;
72388;SDS011;60566;48.062;9.930;2023-03-20T07:15:01;10.48;;;5.60;;
72388;SDS011;60566;48.062;9.930;2023-03-20T07:17:26;10.90;;;4.80;;
72388;SDS011;60566;48.062;9.930;2023-03-20T07:19:52;8.32;;;4.95;;
72388;SDS011;60566;48.062;9.930;2023-03-20T07:22:19;10.13;;;5.00;;
72388;SDS011;60566;48.062;9.930;2023-03-20T07:24:45;10.13;;;4.82;;
72388;SDS011;60566;48.062;9.930;2023-03-20T07:27:11;9.88;;;4.75;;
72388;SDS011;60566;48.062;9.930;2023-03-20T07:29:36;6.93;;;4.60;;
72388;SDS011;60566;48.062;9.930;2023-03-20T07:32:01;8.75;;;5.05;;
72388;SDS011;60566;48.062;9.930;2023-03-20T07:34:27;8.18;;;4.10;;
72388;SDS011;60566;48.062;9.930;2023-03-20T07:36:52;8.57;;;4.10;;
72388;SDS011;60566;48.062;9.930;2023-03-20T07:39:20;7.95;;;5.45;;
72388;SDS011;60566;48.062;9.930;2023-03-20T07:41:45;8.77;;;4.88;;
72388;SDS011;60566;48.062;9.930;2023-03-20T07:44:10;7.57;;;4.28;;
72388;SDS011;60566;48.062;9.930;2023-03-20T07:46:36;7.22;;;4.63;;
72388;SDS011;60566;48.062;9.930;2023-03-20T07:49:01;8.68;;;4.80;;
72388;SDS011;60566;48.062;9.930;2023-03-20T07:51:27;7.20;;;4.57;;
72388;SDS011;60566;48.062;9.930;2023-03-20T07:53:52;7.47;;;4.18;;
72388;SDS011;60566;48.062;9.930;2023-03-20T07:56:19;7.55;;;4.85;;
72388;SDS011;60566;48.062;9.930;2023-03-20T07:58:44;8.02;;;4.72;;
72388;SDS011;60566;48.062;9.930;2023-03-20T08:01:10;7.97;;;4.85;;
72388;SDS011;60566;48.062;9.930;2023-03-20T08:03:35;8.07;;;4.78;;
72388;SDS011;60566;48.062;9.930;2023-03-20T08:06:00;7.93;;;4.13;;
72388;SDS011;60566;48.062;9.930;2023-03-20T08:08:28;6.45;;;3.78;;
72388;SDS011;60566;48.062;9.930;2023-03-20T08:10:53;6.93;;;3.78;;
72388;SDS011;60566;48.062;9.930;2023-03-20T08:13:20;7.25;;;4.40;;
72388;SDS011;60566;48.062;9.930;2023-03-20T08:15:45;6.63;;;3.53;;
72388;SDS011;60566;48.062;9.930;2023-03-20T08:18:11;6.05;;;3.50;;
72388;SDS011;60566;48.062;9.930;2023-03-20T08:20:36;6.13;;;3.47;;
72388;SDS011;60566;48.062;9.930;2023-03-20T08:23:01;7.72;;;3.63;;
72388;SDS011;60566;48.062;9.930;2023-03-20T08:25:27;5.55;;;3.28;;
72388;SDS011;60566;48.062;9.930;2023-03-20T08:27:52;7.22;;;3.65;;
72388;SDS011;60566;48.062;9.930;2023-03-20T08:30:19;6.13;;;3.38;;
72388;SDS011;60566;48.062;9.930;2023-03-20T08:32:45;6.90;;;3.65;;
72388;SDS011;60566;48.062;9.930;2023-03-20T08:35:10;6.30;;;3.17;;
72388;SDS011;60566;48.062;9.930;2023-03-20T08:37:35;5.40;;;2.85;;
72388;SDS011;60566;48.062;9.930;2023-03-20T08:40:01;5.93;;;2.97;;
72388;SDS011;60566;48.062;9.930;2023-03-20T08:42:26;4.28;;;2.13;;
72388;SDS011;60566;48.062;9.930;2023-03-20T08:44:51;4.45;;;2.58;;
72388;SDS011;60566;48.062;9.930;2023-03-20T08:47:18;5.88;;;2.80;;
72388;SDS011;60566;48.062;9.930;2023-03-20T08:49:43;5.40;;;3.33;;
72388;SDS011;60566;48.062;9.930;2023-03-20T08:52:09;4.68;;;2.47;;
72388;SDS011;60566;48.062;9.930;2023-03-20T08:54:34;5.07;;;2.40;;
72388;SDS011;60566;48.062;9.930;2023-03-20T08:57:00;4.90;;;2.67;;
72388;SDS011;60566;48.062;9.930;2023-03-20T08:59:25;6.78;;;3.40;;
72388;SDS011;60566;48.062;9.930;2023-03-20T09:01:50;7.03;;;3.05;;
72388;SDS011;60566;48.062;9.930;2023-03-20T09:04:17;4.88;;;3.00;;
72388;SDS011;60566;48.062;9.930;2023-03-20T09:06:43;4.57;;;2.92;;
72388;SDS011;60566;48.062;9.930;2023-03-20T09:09:08;7.03;;;3.05;;
72388;SDS011;60566;48.062;9.930;2023-03-20T09:11:34;4.97;;;2.65;;
72388;SDS011;60566;48.062;9.930;2023-03-20T09:14:00;4.45;;;2.50;;
72388;SDS011;60566;48.062;9.930;2023-03-20T09:16:25;6.05;;;2.85;;
72388;SDS011;60566;48.062;9.930;2023-03-20T09:18:51;4.97;;;2.90;;
72388;SDS011;60566;48.062;9.930;2023-03-20T09:21:18;4.53;;;2.90;;
72388;SDS011;60566;48.062;9.930;2023-03-20T09:23:43;4.97;;;2.88;;
72388;SDS011;60566;48.062;9.930;2023-03-20T09:26:09;4.25;;;2.10;;
72388;SDS011;60566;48.062;9.930;2023-03-20T09:28:34;6.28;;;2.80;;
72388;SDS011;60566;48.062;9.930;2023-03-20T09:30:59;4.70;;;2.53;;
72388;SDS011;60566;48.062;9.930;2023-03-20T09:33:25;4.00;;;2.20;;
72388;SDS011;60566;48.062;9.930;2023-03-20T09:35:51;6.20;;;2.75;;
72388;SDS011;60566;48.062;9.930;2023-03-20T09:38:18;4.85;;;1.95;;
72388;SDS011;60566;48.062;9.930;2023-03-20T09:40:48;4.50;;;1.92;;
72388;SDS011;60566;48.062;9.930;2023-03-20T09:43:16;7.00;;;2.30;;
72388;SDS011;60566;48.062;9.930;2023-03-20T09:45:48;4.55;;;2.58;;
72388;SDS011;60566;48.062;9.930;2023-03-20T09:48:18;4.00;;;1.95;;
72388;SDS011;60566;48.062;9.930;2023-03-20T09:50:50;4.53;;;1.98;;
72388;SDS011;60566;48.062;9.930;2023-03-20T09:53:21;5.13;;;1.80;;
72388;SDS011;60566;48.062;9.930;2023-03-20T09:55:51;2.75;;;1.42;;
72388;SDS011;60566;48.062;9.930;2023-03-20T09:58:19;6.50;;;3.70;;
72388;SDS011;60566;48.062;9.930;2023-03-20T10:00:47;4.47;;;1.63;;
72388;SDS011;60566;48.062;9.930;2023-03-20T10:03:16;3.33;;;2.03;;
72388;SDS011;60566;48.062;9.930;2023-03-20T10:05:44;4.28;;;2.08;;
72388;SDS011;60566;48.062;9.930;2023-03-20T10:08:12;2.50;;;1.40;;
72388;SDS011;60566;48.062;9.930;2023-03-20T10:10:41;2.45;;;1.20;;
72388;SDS011;60566;48.062;9.930;2023-03-20T10:13:17;3.03;;;1.83;;
72388;SDS011;60566;48.062;9.930;2023-03-20T10:15:52;3.05;;;1.30;;
72388;SDS011;60566;48.062;9.930;2023-03-20T10:18:21;2.17;;;1.23;;
72388;SDS011;60566;48.062;9.930;2023-03-20T10:20:50;3.53;;;1.58;;
72388;SDS011;60566;48.062;9.930;2023-03-20T10:23:19;3.17;;;1.13;;
72388;SDS011;60566;48.062;9.930;2023-03-20T10:25:53;2.97;;;1.70;;
72388;SDS011;60566;48.062;9.930;2023-03-20T10:28:21;3.17;;;1.45;;
72388;SDS011;60566;48.062;9.930;2023-03-20T10:30:50;4.28;;;1.77;;
72388;SDS011;60566;48.062;9.930;2023-03-20T10:33:25;3.53;;;1.40;;
72388;SDS011;60566;48.062;9.930;2023-03-20T10:36:00;3.35;;;1.23;;
72388;SDS011;60566;48.062;9.930;2023-03-20T10:38:33;3.22;;;1.52;;
72388;SDS011;60566;48.062;9.930;2023-03-20T10:41:06;4.05;;;1.70;;
72388;SDS011;60566;48.062;9.930;2023-03-20T10:43:34;4.00;;;1.30;;
72388;SDS011;60566;48.062;9.930;2023-03-20T10:46:01;2.67;;;1.40;;
72388;SDS011;60566;48.062;9.930;2023-03-20T10:48:30;4.03;;;1.58;;
72388;SDS011;60566;48.062;9.930;2023-03-20T10:50:58;3.65;;;1.63;;
72388;SDS011;60566;48.062;9.930;2023-03-20T10:53:29;4.72;;;1.48;;
72388;SDS011;60566;48.062;9.930;2023-03-20T10:55:57;3.45;;;1.83;;
72388;SDS011;60566;48.062;9.930;2023-03-20T10:58:27;3.17;;;1.60;;
72388;SDS011;60566;48.062;9.930;2023-03-20T11:00:54;3.92;;;1.75;;
72388;SDS011;60566;48.062;9.930;2023-03-20T11:03:20;3.30;;;1.65;;
72388;SDS011;60566;48.062;9.930;2023-03-20T11:05:48;4.03;;;1.83;;
72388;SDS011;60566;48.062;9.930;2023-03-20T11:08:17;4.93;;;2.00;;
72388;SDS011;60566;48.062;9.930;2023-03-20T11:10:46;4.20;;;2.00;;
72388;SDS011;60566;48.062;9.930;2023-03-20T11:13:24;5.18;;;2.20;;
72388;SDS011;60566;48.062;9.930;2023-03-20T11:15:52;4.32;;;2.45;;
72388;SDS011;60566;48.062;9.930;2023-03-20T11:18:18;4.20;;;2.38;;
72388;SDS011;60566;48.062;9.930;2023-03-20T11:20:45;4.05;;;2.40;;
72388;SDS011;60566;48.062;9.930;2023-03-20T11:23:13;5.57;;;2.28;;
72388;SDS011;60566;48.062;9.930;2023-03-20T11:25:45;3.47;;;2.00;;
72388;SDS011;60566;48.062;9.930;2023-03-20T11:28:29;5.05;;;2.70;;
72388;SDS011;60566;48.062;9.930;2023-03-20T11:30:56;7.78;;;2.17;;
72388;SDS011;60566;48.062;9.930;2023-03-20T11:33:24;4.45;;;2.30;;
72388;SDS011;60566;48.062;9.930;2023-03-20T11:35:51;4.10;;;2.35;;
72388;SDS011;60566;48.062;9.930;2023-03-20T11:38:18;4.25;;;2.38;;
72388;SDS011;60566;48.062;9.930;2023-03-20T11:40:45;4.45;;;2.20;;
72388;SDS011;60566;48.062;9.930;2023-03-20T11:43:12;3.78;;;1.73;;
72388;SDS011;60566;48.062;9.930;2023-03-20T11:45:40;4.38;;;2.13;;
72388;SDS011;60566;48.062;9.930;2023-03-20T11:48:13;3.80;;;1.80;;
72388;SDS011;60566;48.062;9.930;2023-03-20T11:50:42;3.97;;;1.73;;
72388;SDS011;60566;48.062;9.930;2023-03-20T11:53:16;3.42;;;1.58;;
72388;SDS011;60566;48.062;9.930;2023-03-20T11:55:45;4.35;;;2.15;;
72388;SDS011;60566;48.062;9.930;2023-03-20T11:58:29;3.08;;;1.95;;
72388;SDS011;60566;48.062;9.930;2023-03-20T12:00:56;3.80;;;1.92;;
72388;SDS011;60566;48.062;9.930;2023-03-20T12:03:33;3.50;;;1.60;;
72388;SDS011;60566;48.062;9.930;2023-03-20T12:06:01;3.70;;;2.00;;
72388;SDS011;60566;48.062;9.930;2023-03-20T12:08:30;3.33;;;1.85;;
72388;SDS011;60566;48.062;9.930;2023-03-20T12:10:57;3.50;;;1.83;;
72388;SDS011;60566;48.062;9.930;2023-03-20T12:15:51;3.22;;;1.77;;
72388;SDS011;60566;48.062;9.930;2023-03-20T12:18:24;6.20;;;1.65;;
72388;SDS011;60566;48.062;9.930;2023-03-20T12:20:53;3.50;;;1.75;;
72388;SDS011;60566;48.062;9.930;2023-03-20T12:23:27;3.50;;;2.03;;
72388;SDS011;60566;48.062;9.930;2023-03-20T12:25:56;3.78;;;1.63;;
72388;SDS011;60566;48.062;9.930;2023-03-20T12:28:24;4.38;;;2.00;;
72388;SDS011;60566;48.062;9.930;2023-03-20T12:30:56;3.00;;;1.80;;
72388;SDS011;60566;48.062;9.930;2023-03-20T12:33:28;4.88;;;2.10;;
72388;SDS011;60566;48.062;9.930;2023-03-20T12:35:58;2.92;;;1.27;;
72388;SDS011;60566;48.062;9.930;2023-03-20T12:38:26;3.00;;;1.85;;
72388;SDS011;60566;48.062;9.930;2023-03-20T12:40:54;3.00;;;1.50;;
72388;SDS011;60566;48.062;9.930;2023-03-20T12:43:21;3.05;;;1.35;;
72388;SDS011;60566;48.062;9.930;2023-03-20T12:45:50;3.30;;;1.90;;
72388;SDS011;60566;48.062;9.930;2023-03-20T12:48:26;2.58;;;1.50;;
72388;SDS011;60566;48.062;9.930;2023-03-20T12:51:02;3.63;;;1.42;;
72388;SDS011;60566;48.062;9.930;2023-03-20T12:53:33;2.90;;;1.33;;
72388;SDS011;60566;48.062;9.930;2023-03-20T12:56:10;2.33;;;1.33;;
72388;SDS011;60566;48.062;9.930;2023-03-20T12:58:43;2.75;;;1.42;;
72388;SDS011;60566;48.062;9.930;2023-03-20T13:01:09;3.92;;;1.45;;
72388;SDS011;60566;48.062;9.930;2023-03-20T13:03:45;2.33;;;1.27;;
72388;SDS011;60566;48.062;9.930;2023-03-20T13:06:19;2.65;;;1.45;;
72388;SDS011;60566;48.062;9.930;2023-03-20T13:11:53;2.38;;;1.10;;
72388;SDS011;60566;48.062;9.930;2023-03-20T13:14:22;2.60;;;1.48;;
72388;SDS011;60566;48.062;9.930;2023-03-20T13:16:50;2.78;;;1.48;;
72388;SDS011;60566;48.062;9.930;2023-03-20T13:21:50;2.55;;;1.27;;
72388;SDS011;60566;48.062;9.930;2023-03-20T13:24:20;4.60;;;1.35;;
72388;SDS011;60566;48.062;9.930;2023-03-20T13:26:58;2.15;;;1.23;;
72388;SDS011;60566;48.062;9.930;2023-03-20T13:29:27;3.67;;;1.52;;
72388;SDS011;60566;48.062;9.930;2023-03-20T13:31:59;2.78;;;1.48;;
72388;SDS011;60566;48.062;9.930;2023-03-20T13:34:46;2.30;;;1.30;;
72388;SDS011;60566;48.062;9.930;2023-03-20T13:37:20;2.92;;;1.55;;
72388;SDS011;60566;48.062;9.930;2023-03-20T13:39:50;3.33;;;1.55;;
72388;SDS011;60566;48.062;9.930;2023-03-20T13:42:22;2.60;;;1.13;;
72388;SDS011;60566;48.062;9.930;2023-03-20T13:44:55;2.92;;;1.40;;
72388;SDS011;60566;48.062;9.930;2023-03-20T13:47:24;2.83;;;1.67;;
72388;SDS011;60566;48.062;9.930;2023-03-20T13:49:55;3.05;;;1.40;;
72388;SDS011;60566;48.062;9.930;2023-03-20T13:52:24;2.83;;;1.38;;
72388;SDS011;60566;48.062;9.930;2023-03-20T13:54:57;4.35;;;2.00;;
72388;SDS011;60566;48.062;9.930;2023-03-20T13:57:38;2.90;;;1.40;;
72388;SDS011;60566;48.062;9.930;2023-03-20T14:00:16;2.60;;;1.40;;
72388;SDS011;60566;48.062;9.930;2023-03-20T14:02:59;4.28;;;2.03;;
72388;SDS011;60566;48.062;9.930;2023-03-20T14:05:37;4.40;;;1.83;;
72388;SDS011;60566;48.062;9.930;2023-03-20T14:10:44;3.05;;;1.40;;
72388;SDS011;60566;48.062;9.930;2023-03-20T14:13:11;3.03;;;1.45;;
72388;SDS011;60566;48.062;9.930;2023-03-20T14:15:39;3.30;;;1.83;;
72388;SDS011;60566;48.062;9.930;2023-03-20T14:18:12;3.55;;;1.63;;
72388;SDS011;60566;48.062;9.930;2023-03-20T14:20:41;4.32;;;1.60;;
72388;SDS011;60566;48.062;9.930;2023-03-20T14:23:13;3.30;;;1.55;;
72388;SDS011;60566;48.062;9.930;2023-03-20T14:25:41;3.70;;;1.50;;
72388;SDS011;60566;48.062;9.930;2023-03-20T14:28:08;2.92;;;1.50;;
72388;SDS011;60566;48.062;9.930;2023-03-20T14:30:48;3.30;;;2.00;;
72388;SDS011;60566;48.062;9.930;2023-03-20T14:33:24;2.83;;;1.42;;
72388;SDS011;60566;48.062;9.930;2023-03-20T14:38:43;4.10;;;1.38;;
72388;SDS011;60566;48.062;9.930;2023-03-20T14:41:13;3.25;;;1.33;;
72388;SDS011;60566;48.062;9.930;2023-03-20T14:43:45;2.95;;;1.65;;
72388;SDS011;60566;48.062;9.930;2023-03-20T14:46:19;3.55;;;1.77;;
72388;SDS011;60566;48.062;9.930;2023-03-20T14:48:52;2.78;;;1.48;;
72388;SDS011;60566;48.062;9.930;2023-03-20T14:51:21;3.45;;;1.40;;
72388;SDS011;60566;48.062;9.930;2023-03-20T14:53:53;6.82;;;2.53;;
72388;SDS011;60566;48.062;9.930;2023-03-20T14:56:19;3.50;;;1.58;;
72388;SDS011;60566;48.062;9.930;2023-03-20T14:58:52;4.65;;;1.98;;
72388;SDS011;60566;48.062;9.930;2023-03-20T15:01:24;2.60;;;1.35;;
72388;SDS011;60566;48.062;9.930;2023-03-20T15:03:52;3.13;;;1.73;;
72388;SDS011;60566;48.062;9.930;2023-03-20T15:06:22;6.18;;;1.73;;
72388;SDS011;60566;48.062;9.930;2023-03-20T15:08:49;3.40;;;1.80;;
72388;SDS011;60566;48.062;9.930;2023-03-20T15:11:20;2.85;;;1.35;;
72388;SDS011;60566;48.062;9.930;2023-03-20T15:13:46;4.20;;;1.42;;
72388;SDS011;60566;48.062;9.930;2023-03-20T15:16:13;3.42;;;1.65;;